首页
METAR-TAF:

METAR-TAF

机场 :

洛格罗尼奥, 西班牙

纬度: 42-27N, 经度: 002-20W, 海拔: 353米

当前天气观测

该预报发布于42分钟前的22:00 UTC
风速9节,风向西北,在西北转西北之间变化
温度 8°C
湿度 76%
气压 1020 hPa
能见度10公里或以上
少量云层高于2600英尺
多云层高于3200英尺

METAR: LELO 292200Z AUTO 31009KT 260V340 9999 FEW026 BKN032 08/04 Q1020

时间: 00:42 (22:42 UTC)

预报

该预报发布于5小时和42分钟前的17:00 UTC
预报有效从29日的 18点(UTC)到 30日的 03点(UTC)
风速12节,风向西北
能见度10公里或以上
1500米以下无云,无积雨云

TAF: LELO 291700Z 2918/3003 32012KT CAVOK

超过4000个机场的气象观测和天气预报(METAR&TAF报告)。

可查询的气象台以黄色和红色小点在地图上表示。

将鼠标移到小点上方,可查看气象台名称。

然后点击查看天气观测和预报。

如需切换地图:点击带黑十字的绿色按钮放大地图;点击带横线的绿色按钮缩小地图;或者点击绿色箭头查看邻近地区的地图。


METAR-TAF: